sensor_id;sensor_type;location;lat;lon;timestamp;P1;durP1;ratioP1;P2;durP2;ratioP2
66707;SDS011;53622;0.000;0.000;2022-11-20T00:01:13;1.95;;;1.05;;
66707;SDS011;53622;0.000;0.000;2022-11-20T00:03:45;1.08;;;0.90;;
66707;SDS011;53622;0.000;0.000;2022-11-20T00:06:15;1.42;;;0.90;;
66707;SDS011;53622;0.000;0.000;2022-11-20T00:08:45;1.00;;;0.82;;
66707;SDS011;53622;0.000;0.000;2022-11-20T00:11:16;1.30;;;0.80;;
66707;SDS011;53622;0.000;0.000;2022-11-20T00:13:47;1.85;;;0.95;;
66707;SDS011;53622;0.000;0.000;2022-11-20T00:16:18;1.00;;;0.68;;
66707;SDS011;53622;0.000;0.000;2022-11-20T00:18:50;1.90;;;0.98;;
66707;SDS011;53622;0.000;0.000;2022-11-20T00:21:20;0.95;;;0.70;;
66707;SDS011;53622;0.000;0.000;2022-11-20T00:23:51;1.30;;;0.80;;
66707;SDS011;53622;0.000;0.000;2022-11-20T00:26:23;1.42;;;0.80;;
66707;SDS011;53622;0.000;0.000;2022-11-20T00:28:54;1.48;;;0.95;;
66707;SDS011;53622;0.000;0.000;2022-11-20T00:31:24;3.20;;;1.00;;
66707;SDS011;53622;0.000;0.000;2022-11-20T00:33:55;1.10;;;0.80;;
66707;SDS011;53622;0.000;0.000;2022-11-20T00:36:26;1.02;;;0.77;;
66707;SDS011;53622;0.000;0.000;2022-11-20T00:38:56;1.70;;;0.70;;
66707;SDS011;53622;0.000;0.000;2022-11-20T00:41:27;1.55;;;0.98;;
66707;SDS011;53622;0.000;0.000;2022-11-20T00:43:57;2.95;;;0.90;;
66707;SDS011;53622;0.000;0.000;2022-11-20T00:46:27;2.28;;;0.90;;
66707;SDS011;53622;0.000;0.000;2022-11-20T00:48:58;1.40;;;0.80;;
66707;SDS011;53622;0.000;0.000;2022-11-20T00:51:27;2.97;;;0.82;;
66707;SDS011;53622;0.000;0.000;2022-11-20T00:53:56;1.73;;;0.65;;
66707;SDS011;53622;0.000;0.000;2022-11-20T00:56:27;2.25;;;0.80;;
66707;SDS011;53622;0.000;0.000;2022-11-20T00:58:58;1.30;;;0.90;;
66707;SDS011;53622;0.000;0.000;2022-11-20T01:01:28;0.88;;;0.60;;
66707;SDS011;53622;0.000;0.000;2022-11-20T01:03:59;1.13;;;0.70;;
66707;SDS011;53622;0.000;0.000;2022-11-20T01:06:29;2.42;;;0.70;;
66707;SDS011;53622;0.000;0.000;2022-11-20T01:09:00;1.20;;;0.70;;
66707;SDS011;53622;0.000;0.000;2022-11-20T01:11:31;0.82;;;0.70;;
66707;SDS011;53622;0.000;0.000;2022-11-20T01:14:03;0.90;;;0.60;;
66707;SDS011;53622;0.000;0.000;2022-11-20T01:16:34;1.00;;;0.60;;
66707;SDS011;53622;0.000;0.000;2022-11-20T01:19:07;1.48;;;0.80;;
66707;SDS011;53622;0.000;0.000;2022-11-20T01:21:43;2.28;;;0.88;;
66707;SDS011;53622;0.000;0.000;2022-11-20T01:24:14;1.02;;;0.75;;
66707;SDS011;53622;0.000;0.000;2022-11-20T01:26:45;1.27;;;0.80;;
66707;SDS011;53622;0.000;0.000;2022-11-20T01:29:17;0.80;;;0.80;;
66707;SDS011;53622;0.000;0.000;2022-11-20T01:31:48;0.77;;;0.68;;
66707;SDS011;53622;0.000;0.000;2022-11-20T01:34:21;0.93;;;0.80;;
66707;SDS011;53622;0.000;0.000;2022-11-20T01:36:52;1.38;;;0.80;;
66707;SDS011;53622;0.000;0.000;2022-11-20T01:39:22;1.83;;;0.98;;
66707;SDS011;53622;0.000;0.000;2022-11-20T01:41:52;1.17;;;0.85;;
66707;SDS011;53622;0.000;0.000;2022-11-20T01:44:45;1.13;;;0.70;;
66707;SDS011;53622;0.000;0.000;2022-11-20T01:47:20;1.00;;;0.70;;
66707;SDS011;53622;0.000;0.000;2022-11-20T01:49:56;0.95;;;0.63;;
66707;SDS011;53622;0.000;0.000;2022-11-20T01:52:32;0.95;;;0.70;;
66707;SDS011;53622;0.000;0.000;2022-11-20T01:55:07;1.05;;;0.73;;
66707;SDS011;53622;0.000;0.000;2022-11-20T01:57:40;1.58;;;0.85;;
66707;SDS011;53622;0.000;0.000;2022-11-20T02:00:11;1.48;;;0.80;;
66707;SDS011;53622;0.000;0.000;2022-11-20T02:02:43;1.15;;;0.90;;
66707;SDS011;53622;0.000;0.000;2022-11-20T02:05:19;0.98;;;0.55;;
66707;SDS011;53622;0.000;0.000;2022-11-20T02:07:54;1.23;;;0.77;;
66707;SDS011;53622;0.000;0.000;2022-11-20T02:10:24;1.08;;;0.70;;
66707;SDS011;53622;0.000;0.000;2022-11-20T02:12:55;1.00;;;0.80;;
66707;SDS011;53622;0.000;0.000;2022-11-20T02:15:42;0.80;;;0.70;;
66707;SDS011;53622;0.000;0.000;2022-11-20T02:18:12;1.85;;;0.70;;
66707;SDS011;53622;0.000;0.000;2022-11-20T02:20:45;1.25;;;0.70;;
66707;SDS011;53622;0.000;0.000;2022-11-20T02:23:17;1.35;;;0.90;;
66707;SDS011;53622;0.000;0.000;2022-11-20T02:25:52;1.35;;;0.60;;
66707;SDS011;53622;0.000;0.000;2022-11-20T02:28:22;0.73;;;0.57;;
66707;SDS011;53622;0.000;0.000;2022-11-20T02:30:51;0.75;;;0.70;;
66707;SDS011;53622;0.000;0.000;2022-11-20T02:33:20;0.90;;;0.90;;
66707;SDS011;53622;0.000;0.000;2022-11-20T02:35:50;1.10;;;0.88;;
66707;SDS011;53622;0.000;0.000;2022-11-20T02:38:19;1.10;;;0.80;;
66707;SDS011;53622;0.000;0.000;2022-11-20T02:40:49;1.33;;;0.88;;
66707;SDS011;53622;0.000;0.000;2022-11-20T02:43:23;1.67;;;0.68;;
66707;SDS011;53622;0.000;0.000;2022-11-20T02:45:52;0.88;;;0.80;;
66707;SDS011;53622;0.000;0.000;2022-11-20T02:48:21;0.60;;;0.60;;
66707;SDS011;53622;0.000;0.000;2022-11-20T02:50:51;0.70;;;0.70;;
66707;SDS011;53622;0.000;0.000;2022-11-20T02:53:20;0.77;;;0.60;;
66707;SDS011;53622;0.000;0.000;2022-11-20T02:55:49;1.58;;;0.73;;
66707;SDS011;53622;0.000;0.000;2022-11-20T02:58:18;0.98;;;0.70;;
66707;SDS011;53622;0.000;0.000;2022-11-20T03:00:49;1.30;;;0.80;;
66707;SDS011;53622;0.000;0.000;2022-11-20T03:03:18;1.02;;;0.70;;
66707;SDS011;53622;0.000;0.000;2022-11-20T03:05:47;1.70;;;0.70;;
66707;SDS011;53622;0.000;0.000;2022-11-20T03:08:16;1.10;;;0.60;;
66707;SDS011;53622;0.000;0.000;2022-11-20T03:10:46;0.75;;;0.60;;
66707;SDS011;53622;0.000;0.000;2022-11-20T03:13:15;0.75;;;0.60;;
66707;SDS011;53622;0.000;0.000;2022-11-20T03:15:44;0.90;;;0.55;;
66707;SDS011;53622;0.000;0.000;2022-11-20T03:18:15;0.75;;;0.60;;
66707;SDS011;53622;0.000;0.000;2022-11-20T03:20:44;0.50;;;0.50;;
66707;SDS011;53622;0.000;0.000;2022-11-20T03:23:13;0.93;;;0.70;;
66707;SDS011;53622;0.000;0.000;2022-11-20T03:25:43;1.00;;;0.70;;
66707;SDS011;53622;0.000;0.000;2022-11-20T03:28:12;1.27;;;0.60;;
66707;SDS011;53622;0.000;0.000;2022-11-20T03:30:41;0.70;;;0.63;;
66707;SDS011;53622;0.000;0.000;2022-11-20T03:33:10;0.50;;;0.50;;
66707;SDS011;53622;0.000;0.000;2022-11-20T03:35:41;0.60;;;0.60;;
66707;SDS011;53622;0.000;0.000;2022-11-20T03:38:10;1.15;;;0.50;;
66707;SDS011;53622;0.000;0.000;2022-11-20T03:40:39;0.70;;;0.50;;
66707;SDS011;53622;0.000;0.000;2022-11-20T03:43:09;0.50;;;0.50;;
66707;SDS011;53622;0.000;0.000;2022-11-20T03:45:38;0.98;;;0.75;;
66707;SDS011;53622;0.000;0.000;2022-11-20T03:48:07;0.60;;;0.60;;
66707;SDS011;53622;0.000;0.000;2022-11-20T03:50:36;0.80;;;0.60;;
66707;SDS011;53622;0.000;0.000;2022-11-20T03:53:07;0.57;;;0.55;;
66707;SDS011;53622;0.000;0.000;2022-11-20T03:55:36;0.77;;;0.60;;
66707;SDS011;53622;0.000;0.000;2022-11-20T03:58:05;0.65;;;0.55;;
66707;SDS011;53622;0.000;0.000;2022-11-20T04:00:34;0.90;;;0.68;;
66707;SDS011;53622;0.000;0.000;2022-11-20T04:03:04;0.60;;;0.50;;
66707;SDS011;53622;0.000;0.000;2022-11-20T04:05:33;0.63;;;0.52;;
66707;SDS011;53622;0.000;0.000;2022-11-20T04:08:02;0.73;;;0.63;;
66707;SDS011;53622;0.000;0.000;2022-11-20T04:10:33;0.60;;;0.60;;
66707;SDS011;53622;0.000;0.000;2022-11-20T04:13:02;0.70;;;0.70;;
66707;SDS011;53622;0.000;0.000;2022-11-20T04:15:32;0.77;;;0.50;;
66707;SDS011;53622;0.000;0.000;2022-11-20T04:18:04;0.65;;;0.55;;
66707;SDS011;53622;0.000;0.000;2022-11-20T04:20:33;0.70;;;0.50;;
66707;SDS011;53622;0.000;0.000;2022-11-20T04:23:03;0.98;;;0.50;;
66707;SDS011;53622;0.000;0.000;2022-11-20T04:25:34;0.57;;;0.50;;
66707;SDS011;53622;0.000;0.000;2022-11-20T04:28:03;0.95;;;0.73;;
66707;SDS011;53622;0.000;0.000;2022-11-20T04:30:32;1.67;;;0.70;;
66707;SDS011;53622;0.000;0.000;2022-11-20T04:33:01;0.82;;;0.50;;
66707;SDS011;53622;0.000;0.000;2022-11-20T04:35:33;0.93;;;0.50;;
66707;SDS011;53622;0.000;0.000;2022-11-20T04:38:03;0.57;;;0.57;;
66707;SDS011;53622;0.000;0.000;2022-11-20T04:40:33;0.80;;;0.70;;
66707;SDS011;53622;0.000;0.000;2022-11-20T04:43:02;0.63;;;0.60;;
66707;SDS011;53622;0.000;0.000;2022-11-20T04:45:32;0.82;;;0.50;;
66707;SDS011;53622;0.000;0.000;2022-11-20T04:48:01;1.42;;;0.63;;
66707;SDS011;53622;0.000;0.000;2022-11-20T04:50:30;1.02;;;0.52;;
66707;SDS011;53622;0.000;0.000;2022-11-20T04:52:59;0.60;;;0.50;;
66707;SDS011;53622;0.000;0.000;2022-11-20T04:55:28;2.33;;;0.60;;
66707;SDS011;53622;0.000;0.000;2022-11-20T04:57:59;1.92;;;0.70;;
66707;SDS011;53622;0.000;0.000;2022-11-20T05:00:28;0.52;;;0.43;;
66707;SDS011;53622;0.000;0.000;2022-11-20T05:02:57;1.25;;;0.57;;
66707;SDS011;53622;0.000;0.000;2022-11-20T05:05:27;1.00;;;0.60;;
66707;SDS011;53622;0.000;0.000;2022-11-20T05:07:56;0.50;;;0.50;;
66707;SDS011;53622;0.000;0.000;2022-11-20T05:10:28;0.88;;;0.60;;
66707;SDS011;53622;0.000;0.000;2022-11-20T05:12:59;0.82;;;0.60;;
66707;SDS011;53622;0.000;0.000;2022-11-20T05:15:28;1.00;;;0.65;;
66707;SDS011;53622;0.000;0.000;2022-11-20T05:17:57;0.65;;;0.50;;
66707;SDS011;53622;0.000;0.000;2022-11-20T05:20:26;0.57;;;0.45;;
66707;SDS011;53622;0.000;0.000;2022-11-20T05:22:56;0.50;;;0.50;;
66707;SDS011;53622;0.000;0.000;2022-11-20T05:25:25;0.50;;;0.50;;
66707;SDS011;53622;0.000;0.000;2022-11-20T05:27:54;0.50;;;0.50;;
66707;SDS011;53622;0.000;0.000;2022-11-20T05:30:25;0.82;;;0.60;;
66707;SDS011;53622;0.000;0.000;2022-11-20T05:32:54;0.70;;;0.52;;
66707;SDS011;53622;0.000;0.000;2022-11-20T05:35:23;1.05;;;0.60;;
66707;SDS011;53622;0.000;0.000;2022-11-20T05:37:52;0.38;;;0.38;;
66707;SDS011;53622;0.000;0.000;2022-11-20T05:40:22;0.60;;;0.60;;
66707;SDS011;53622;0.000;0.000;2022-11-20T05:42:51;0.55;;;0.50;;
66707;SDS011;53622;0.000;0.000;2022-11-20T05:45:20;0.73;;;0.40;;
66707;SDS011;53622;0.000;0.000;2022-11-20T05:47:51;0.80;;;0.60;;
66707;SDS011;53622;0.000;0.000;2022-11-20T05:50:20;0.98;;;0.50;;
66707;SDS011;53622;0.000;0.000;2022-11-20T05:52:49;1.02;;;0.50;;
66707;SDS011;53622;0.000;0.000;2022-11-20T05:55:18;8.30;;;0.88;;
66707;SDS011;53622;0.000;0.000;2022-11-20T05:57:47;2.22;;;0.70;;
66707;SDS011;53622;0.000;0.000;2022-11-20T06:00:17;3.30;;;0.70;;
66707;SDS011;53622;0.000;0.000;2022-11-20T06:02:46;1.50;;;0.50;;
66707;SDS011;53622;0.000;0.000;2022-11-20T06:05:17;1.58;;;0.57;;
66707;SDS011;53622;0.000;0.000;2022-11-20T06:07:46;2.53;;;0.63;;
66707;SDS011;53622;0.000;0.000;2022-11-20T06:10:15;1.27;;;0.50;;
66707;SDS011;53622;0.000;0.000;2022-11-20T06:12:44;1.20;;;0.50;;
66707;SDS011;53622;0.000;0.000;2022-11-20T06:15:14;3.17;;;0.55;;
66707;SDS011;53622;0.000;0.000;2022-11-20T06:17:43;1.02;;;0.43;;
66707;SDS011;53622;0.000;0.000;2022-11-20T06:20:12;1.73;;;0.60;;
66707;SDS011;53622;0.000;0.000;2022-11-20T06:22:43;1.60;;;0.80;;
66707;SDS011;53622;0.000;0.000;2022-11-20T06:25:12;2.05;;;0.50;;
66707;SDS011;53622;0.000;0.000;2022-11-20T06:27:42;0.95;;;0.45;;
66707;SDS011;53622;0.000;0.000;2022-11-20T06:30:12;0.60;;;0.60;;
66707;SDS011;53622;0.000;0.000;2022-11-20T06:32:41;0.40;;;0.40;;
66707;SDS011;53622;0.000;0.000;2022-11-20T06:35:10;0.50;;;0.50;;
66707;SDS011;53622;0.000;0.000;2022-11-20T06:37:39;0.47;;;0.47;;
66707;SDS011;53622;0.000;0.000;2022-11-20T06:40:11;1.75;;;0.50;;
66707;SDS011;53622;0.000;0.000;2022-11-20T06:42:40;2.88;;;0.77;;
66707;SDS011;53622;0.000;0.000;2022-11-20T06:45:10;1.33;;;0.55;;
66707;SDS011;53622;0.000;0.000;2022-11-20T06:47:39;1.08;;;0.70;;
66707;SDS011;53622;0.000;0.000;2022-11-20T06:50:08;0.82;;;0.55;;
66707;SDS011;53622;0.000;0.000;2022-11-20T06:52:37;5.03;;;0.88;;
66707;SDS011;53622;0.000;0.000;2022-11-20T06:55:11;5.60;;;0.90;;
66707;SDS011;53622;0.000;0.000;2022-11-20T06:57:40;1.00;;;0.50;;
66707;SDS011;53622;0.000;0.000;2022-11-20T07:00:10;0.80;;;0.60;;
66707;SDS011;53622;0.000;0.000;2022-11-20T07:02:40;0.98;;;0.88;;
66707;SDS011;53622;0.000;0.000;2022-11-20T07:05:09;0.90;;;0.50;;
66707;SDS011;53622;0.000;0.000;2022-11-20T07:07:38;1.70;;;0.70;;
66707;SDS011;53622;0.000;0.000;2022-11-20T07:10:08;1.60;;;0.60;;
66707;SDS011;53622;0.000;0.000;2022-11-20T07:12:39;1.88;;;0.50;;
66707;SDS011;53622;0.000;0.000;2022-11-20T07:15:08;2.15;;;0.60;;
66707;SDS011;53622;0.000;0.000;2022-11-20T07:17:38;1.25;;;0.60;;
66707;SDS011;53622;0.000;0.000;2022-11-20T07:20:07;2.28;;;0.65;;
66707;SDS011;53622;0.000;0.000;2022-11-20T07:22:37;1.48;;;0.68;;
66707;SDS011;53622;0.000;0.000;2022-11-20T07:25:07;1.08;;;0.70;;
66707;SDS011;53622;0.000;0.000;2022-11-20T07:27:39;0.40;;;0.40;;
66707;SDS011;53622;0.000;0.000;2022-11-20T07:30:09;2.08;;;0.80;;
66707;SDS011;53622;0.000;0.000;2022-11-20T07:32:38;2.30;;;0.85;;
66707;SDS011;53622;0.000;0.000;2022-11-20T07:35:07;0.52;;;0.52;;
66707;SDS011;53622;0.000;0.000;2022-11-20T07:37:37;0.65;;;0.52;;
66707;SDS011;53622;0.000;0.000;2022-11-20T07:40:06;2.42;;;0.80;;
66707;SDS011;53622;0.000;0.000;2022-11-20T07:42:36;1.05;;;0.68;;
66707;SDS011;53622;0.000;0.000;2022-11-20T07:45:07;3.38;;;0.47;;
66707;SDS011;53622;0.000;0.000;2022-11-20T07:47:37;2.35;;;0.50;;
66707;SDS011;53622;0.000;0.000;2022-11-20T07:50:07;1.10;;;0.50;;
66707;SDS011;53622;0.000;0.000;2022-11-20T07:52:36;0.88;;;0.50;;
66707;SDS011;53622;0.000;0.000;2022-11-20T07:55:06;0.80;;;0.55;;
66707;SDS011;53622;0.000;0.000;2022-11-20T07:57:36;3.38;;;0.90;;
66707;SDS011;53622;0.000;0.000;2022-11-20T08:00:08;6.05;;;0.80;;
66707;SDS011;53622;0.000;0.000;2022-11-20T08:02:39;5.32;;;0.80;;
66707;SDS011;53622;0.000;0.000;2022-11-20T08:05:09;6.13;;;1.00;;
66707;SDS011;53622;0.000;0.000;2022-11-20T08:07:38;2.15;;;0.55;;
66707;SDS011;53622;0.000;0.000;2022-11-20T08:10:10;5.50;;;0.68;;
66707;SDS011;53622;0.000;0.000;2022-11-20T08:12:43;2.20;;;0.70;;
66707;SDS011;53622;0.000;0.000;2022-11-20T08:15:32;4.82;;;0.82;;
66707;SDS011;53622;0.000;0.000;2022-11-20T08:18:02;3.53;;;0.80;;
66707;SDS011;53622;0.000;0.000;2022-11-20T08:20:52;3.00;;;0.70;;
66707;SDS011;53622;0.000;0.000;2022-11-20T08:23:22;1.95;;;0.70;;
66707;SDS011;53622;0.000;0.000;2022-11-20T08:25:51;0.90;;;0.68;;
66707;SDS011;53622;0.000;0.000;2022-11-20T08:28:21;2.47;;;0.52;;
66707;SDS011;53622;0.000;0.000;2022-11-20T08:30:57;1.73;;;0.50;;
66707;SDS011;53622;0.000;0.000;2022-11-20T08:33:26;1.65;;;0.70;;
66707;SDS011;53622;0.000;0.000;2022-11-20T08:35:58;3.53;;;0.60;;
66707;SDS011;53622;0.000;0.000;2022-11-20T08:38:29;1.63;;;0.70;;
66707;SDS011;53622;0.000;0.000;2022-11-20T08:40:59;1.27;;;0.60;;
66707;SDS011;53622;0.000;0.000;2022-11-20T08:43:46;2.88;;;0.60;;
66707;SDS011;53622;0.000;0.000;2022-11-20T08:46:17;2.15;;;0.73;;
66707;SDS011;53622;0.000;0.000;2022-11-20T08:48:47;3.95;;;1.05;;
66707;SDS011;53622;0.000;0.000;2022-11-20T08:51:16;4.75;;;0.70;;
66707;SDS011;53622;0.000;0.000;2022-11-20T08:53:45;6.00;;;1.20;;
66707;SDS011;53622;0.000;0.000;2022-11-20T08:56:15;2.80;;;0.70;;
66707;SDS011;53622;0.000;0.000;2022-11-20T08:58:45;1.08;;;0.60;;
66707;SDS011;53622;0.000;0.000;2022-11-20T09:01:35;1.58;;;0.60;;
66707;SDS011;53622;0.000;0.000;2022-11-20T09:04:06;4.55;;;0.80;;
66707;SDS011;53622;0.000;0.000;2022-11-20T09:06:35;3.15;;;0.80;;
66707;SDS011;53622;0.000;0.000;2022-11-20T09:09:04;2.45;;;0.80;;
66707;SDS011;53622;0.000;0.000;2022-11-20T09:11:34;2.85;;;0.60;;
66707;SDS011;53622;0.000;0.000;2022-11-20T09:14:03;3.35;;;1.20;;
66707;SDS011;53622;0.000;0.000;2022-11-20T09:16:33;1.15;;;0.90;;
66707;SDS011;53622;0.000;0.000;2022-11-20T09:19:04;2.00;;;0.80;;
66707;SDS011;53622;0.000;0.000;2022-11-20T09:21:53;1.50;;;0.70;;
66707;SDS011;53622;0.000;0.000;2022-11-20T09:24:26;3.60;;;0.73;;
66707;SDS011;53622;0.000;0.000;2022-11-20T09:26:57;2.10;;;0.70;;
66707;SDS011;53622;0.000;0.000;2022-11-20T09:29:26;4.47;;;0.73;;
66707;SDS011;53622;0.000;0.000;2022-11-20T09:31:57;3.00;;;0.52;;
66707;SDS011;53622;0.000;0.000;2022-11-20T09:34:26;3.03;;;0.70;;
66707;SDS011;53622;0.000;0.000;2022-11-20T09:36:55;6.28;;;0.73;;
66707;SDS011;53622;0.000;0.000;2022-11-20T09:39:30;1.15;;;0.55;;
66707;SDS011;53622;0.000;0.000;2022-11-20T09:42:03;1.85;;;0.80;;
66707;SDS011;53622;0.000;0.000;2022-11-20T09:44:46;2.13;;;0.70;;
66707;SDS011;53622;0.000;0.000;2022-11-20T09:47:35;3.47;;;0.80;;
66707;SDS011;53622;0.000;0.000;2022-11-20T09:50:20;1.52;;;0.63;;
66707;SDS011;53622;0.000;0.000;2022-11-20T09:53:10;2.08;;;0.70;;
66707;SDS011;53622;0.000;0.000;2022-11-20T09:55:46;6.00;;;0.70;;
66707;SDS011;53622;0.000;0.000;2022-11-20T09:58:20;4.45;;;0.75;;
66707;SDS011;53622;0.000;0.000;2022-11-20T10:01:05;2.38;;;0.65;;
66707;SDS011;53622;0.000;0.000;2022-11-20T10:03:51;47.55;;;7.38;;
66707;SDS011;53622;0.000;0.000;2022-11-20T10:06:28;40.95;;;7.78;;
66707;SDS011;53622;0.000;0.000;2022-11-20T10:09:05;40.45;;;7.82;;
66707;SDS011;53622;0.000;0.000;2022-11-20T10:11:46;41.28;;;7.63;;
66707;SDS011;53622;0.000;0.000;2022-11-20T10:14:26;30.75;;;7.13;;
66707;SDS011;53622;0.000;0.000;2022-11-20T10:17:04;29.45;;;5.68;;
66707;SDS011;53622;0.000;0.000;2022-11-20T10:19:47;27.35;;;6.30;;
66707;SDS011;53622;0.000;0.000;2022-11-20T10:22:30;27.48;;;6.15;;
66707;SDS011;53622;0.000;0.000;2022-11-20T10:25:11;31.25;;;6.28;;
66707;SDS011;53622;0.000;0.000;2022-11-20T10:27:48;27.33;;;6.47;;
66707;SDS011;53622;0.000;0.000;2022-11-20T10:30:30;31.02;;;6.63;;
66707;SDS011;53622;0.000;0.000;2022-11-20T10:33:06;28.08;;;5.78;;
66707;SDS011;53622;0.000;0.000;2022-11-20T10:35:45;24.33;;;6.03;;
66707;SDS011;53622;0.000;0.000;2022-11-20T10:38:21;19.85;;;4.97;;
66707;SDS011;53622;0.000;0.000;2022-11-20T10:40:55;13.43;;;4.55;;
66707;SDS011;53622;0.000;0.000;2022-11-20T10:43:42;20.73;;;4.53;;
66707;SDS011;53622;0.000;0.000;2022-11-20T10:46:14;21.90;;;5.25;;
66707;SDS011;53622;0.000;0.000;2022-11-20T10:48:46;20.58;;;5.15;;
66707;SDS011;53622;0.000;0.000;2022-11-20T10:51:21;17.02;;;3.85;;
66707;SDS011;53622;0.000;0.000;2022-11-20T10:54:02;17.77;;;4.40;;
66707;SDS011;53622;0.000;0.000;2022-11-20T10:56:41;19.40;;;4.78;;
66707;SDS011;53622;0.000;0.000;2022-11-20T11:02:24;15.82;;;3.70;;
66707;SDS011;53622;0.000;0.000;2022-11-20T11:05:04;14.63;;;3.72;;
66707;SDS011;53622;0.000;0.000;2022-11-20T11:07:48;14.60;;;3.85;;
66707;SDS011;53622;0.000;0.000;2022-11-20T11:10:21;13.00;;;3.80;;
66707;SDS011;53622;0.000;0.000;2022-11-20T11:12:53;14.60;;;3.30;;
66707;SDS011;53622;0.000;0.000;2022-11-20T11:15:26;17.05;;;3.63;;
66707;SDS011;53622;0.000;0.000;2022-11-20T11:17:56;13.68;;;3.20;;
66707;SDS011;53622;0.000;0.000;2022-11-20T11:20:26;12.82;;;3.80;;
66707;SDS011;53622;0.000;0.000;2022-11-20T11:22:56;13.90;;;3.58;;
66707;SDS011;53622;0.000;0.000;2022-11-20T11:25:28;10.05;;;3.33;;
66707;SDS011;53622;0.000;0.000;2022-11-20T11:28:01;9.63;;;3.08;;
66707;SDS011;53622;0.000;0.000;2022-11-20T11:30:40;13.27;;;3.10;;
66707;SDS011;53622;0.000;0.000;2022-11-20T11:33:11;16.33;;;3.50;;
66707;SDS011;53622;0.000;0.000;2022-11-20T11:35:47;11.38;;;3.40;;
66707;SDS011;53622;0.000;0.000;2022-11-20T11:38:29;9.15;;;2.78;;
66707;SDS011;53622;0.000;0.000;2022-11-20T11:41:00;12.88;;;3.08;;
66707;SDS011;53622;0.000;0.000;2022-11-20T11:43:31;10.93;;;2.92;;
66707;SDS011;53622;0.000;0.000;2022-11-20T11:46:24;12.73;;;3.00;;
66707;SDS011;53622;0.000;0.000;2022-11-20T11:48:57;23.13;;;3.80;;
66707;SDS011;53622;0.000;0.000;2022-11-20T11:51:29;10.68;;;2.78;;
66707;SDS011;53622;0.000;0.000;2022-11-20T11:54:12;11.20;;;3.05;;
66707;SDS011;53622;0.000;0.000;2022-11-20T11:56:44;14.10;;;3.13;;
66707;SDS011;53622;0.000;0.000;2022-11-20T11:59:15;11.65;;;2.10;;
66707;SDS011;53622;0.000;0.000;2022-11-20T12:01:53;12.18;;;2.55;;
66707;SDS011;53622;0.000;0.000;2022-11-20T12:04:29;14.63;;;4.05;;
66707;SDS011;53622;0.000;0.000;2022-11-20T12:07:12;13.02;;;3.88;;
66707;SDS011;53622;0.000;0.000;2022-11-20T12:10:08;13.93;;;4.22;;
66707;SDS011;53622;0.000;0.000;2022-11-20T12:12:44;13.23;;;3.97;;
66707;SDS011;53622;0.000;0.000;2022-11-20T12:15:22;10.25;;;3.65;;
66707;SDS011;53622;0.000;0.000;2022-11-20T12:17:58;17.63;;;4.07;;
66707;SDS011;53622;0.000;0.000;2022-11-20T12:20:29;19.67;;;6.43;;
66707;SDS011;53622;0.000;0.000;2022-11-20T12:23:05;10.45;;;4.30;;
66707;SDS011;53622;0.000;0.000;2022-11-20T12:25:40;10.15;;;4.90;;
66707;SDS011;53622;0.000;0.000;2022-11-20T12:31:17;13.35;;;5.50;;
66707;SDS011;53622;0.000;0.000;2022-11-20T12:34:02;11.80;;;4.78;;
66707;SDS011;53622;0.000;0.000;2022-11-20T12:37:00;11.05;;;5.00;;
66707;SDS011;53622;0.000;0.000;2022-11-20T12:39:39;11.68;;;4.25;;
66707;SDS011;53622;0.000;0.000;2022-11-20T12:42:16;19.40;;;5.82;;
66707;SDS011;53622;0.000;0.000;2022-11-20T12:48:26;16.75;;;4.13;;
66707;SDS011;53622;0.000;0.000;2022-11-20T12:51:19;11.88;;;4.15;;
66707;SDS011;53622;0.000;0.000;2022-11-20T12:54:11;17.88;;;4.32;;
66707;SDS011;53622;0.000;0.000;2022-11-20T12:57:04;27.50;;;4.95;;
66707;SDS011;53622;0.000;0.000;2022-11-20T12:59:46;13.27;;;4.10;;
66707;SDS011;53622;0.000;0.000;2022-11-20T13:02:25;21.60;;;4.43;;
66707;SDS011;53622;0.000;0.000;2022-11-20T13:05:03;17.88;;;4.18;;
66707;SDS011;53622;0.000;0.000;2022-11-20T13:07:40;12.15;;;4.03;;
66707;SDS011;53622;0.000;0.000;2022-11-20T13:10:13;12.73;;;3.83;;
66707;SDS011;53622;0.000;0.000;2022-11-20T13:12:49;17.80;;;4.35;;
66707;SDS011;53622;0.000;0.000;2022-11-20T13:15:30;11.10;;;3.40;;
66707;SDS011;53622;0.000;0.000;2022-11-20T13:18:07;15.10;;;3.95;;
66707;SDS011;53622;0.000;0.000;2022-11-20T13:20:41;16.85;;;3.85;;
66707;SDS011;53622;0.000;0.000;2022-11-20T13:23:11;10.07;;;3.53;;
66707;SDS011;53622;0.000;0.000;2022-11-20T13:25:51;10.85;;;3.30;;
66707;SDS011;53622;0.000;0.000;2022-11-20T13:28:30;13.40;;;3.55;;
66707;SDS011;53622;0.000;0.000;2022-11-20T13:31:01;9.60;;;3.38;;
66707;SDS011;53622;0.000;0.000;2022-11-20T13:33:31;7.72;;;3.25;;
66707;SDS011;53622;0.000;0.000;2022-11-20T13:36:03;7.78;;;2.83;;
66707;SDS011;53622;0.000;0.000;2022-11-20T13:38:40;9.93;;;3.10;;
66707;SDS011;53622;0.000;0.000;2022-11-20T13:41:22;8.82;;;2.90;;
66707;SDS011;53622;0.000;0.000;2022-11-20T13:44:10;9.05;;;3.05;;
66707;SDS011;53622;0.000;0.000;2022-11-20T13:46:44;10.52;;;3.50;;
66707;SDS011;53622;0.000;0.000;2022-11-20T13:49:16;5.47;;;2.90;;
66707;SDS011;53622;0.000;0.000;2022-11-20T13:51:49;6.88;;;2.78;;
66707;SDS011;53622;0.000;0.000;2022-11-20T13:54:39;8.27;;;2.85;;
66707;SDS011;53622;0.000;0.000;2022-11-20T14:00:23;9.85;;;2.83;;
66707;SDS011;53622;0.000;0.000;2022-11-20T14:03:01;7.25;;;2.78;;
66707;SDS011;53622;0.000;0.000;2022-11-20T14:05:38;5.15;;;2.63;;
66707;SDS011;53622;0.000;0.000;2022-11-20T14:08:18;5.45;;;2.65;;
66707;SDS011;53622;0.000;0.000;2022-11-20T14:11:05;8.43;;;2.85;;
66707;SDS011;53622;0.000;0.000;2022-11-20T14:13:50;5.70;;;2.67;;
66707;SDS011;53622;0.000;0.000;2022-11-20T14:16:25;6.55;;;2.60;;
66707;SDS011;53622;0.000;0.000;2022-11-20T14:19:00;6.35;;;2.38;;
66707;SDS011;53622;0.000;0.000;2022-11-20T14:21:53;8.30;;;2.63;;
66707;SDS011;53622;0.000;0.000;2022-11-20T14:24:35;4.63;;;2.17;;
66707;SDS011;53622;0.000;0.000;2022-11-20T14:27:04;4.35;;;2.00;;
66707;SDS011;53622;0.000;0.000;2022-11-20T14:29:40;4.97;;;2.45;;
66707;SDS011;53622;0.000;0.000;2022-11-20T14:32:10;5.97;;;2.20;;
66707;SDS011;53622;0.000;0.000;2022-11-20T14:34:41;5.85;;;2.00;;
66707;SDS011;53622;0.000;0.000;2022-11-20T14:37:24;4.57;;;2.42;;
66707;SDS011;53622;0.000;0.000;2022-11-20T14:39:56;6.13;;;2.47;;
66707;SDS011;53622;0.000;0.000;2022-11-20T14:42:26;4.25;;;2.20;;
66707;SDS011;53622;0.000;0.000;2022-11-20T14:44:58;3.40;;;1.70;;
66707;SDS011;53622;0.000;0.000;2022-11-20T14:47:29;5.47;;;2.28;;
66707;SDS011;53622;0.000;0.000;2022-11-20T14:50:01;3.45;;;1.95;;
66707;SDS011;53622;0.000;0.000;2022-11-20T14:52:36;5.78;;;2.17;;
66707;SDS011;53622;0.000;0.000;2022-11-20T14:55:05;4.05;;;1.77;;
66707;SDS011;53622;0.000;0.000;2022-11-20T14:57:36;4.65;;;2.13;;
66707;SDS011;53622;0.000;0.000;2022-11-20T15:00:06;5.70;;;2.17;;
66707;SDS011;53622;0.000;0.000;2022-11-20T15:02:48;5.25;;;1.70;;
66707;SDS011;53622;0.000;0.000;2022-11-20T15:05:20;2.97;;;1.50;;
66707;SDS011;53622;0.000;0.000;2022-11-20T15:07:52;4.10;;;1.65;;
66707;SDS011;53622;0.000;0.000;2022-11-20T15:10:34;4.20;;;1.90;;
66707;SDS011;53622;0.000;0.000;2022-11-20T15:13:05;4.75;;;2.03;;
66707;SDS011;53622;0.000;0.000;2022-11-20T15:15:42;2.97;;;1.70;;
66707;SDS011;53622;0.000;0.000;2022-11-20T15:18:15;2.95;;;1.67;;
66707;SDS011;53622;0.000;0.000;2022-11-20T15:20:48;3.03;;;1.80;;
66707;SDS011;53622;0.000;0.000;2022-11-20T15:23:18;3.90;;;1.65;;
66707;SDS011;53622;0.000;0.000;2022-11-20T15:25:48;3.63;;;1.42;;
66707;SDS011;53622;0.000;0.000;2022-11-20T15:28:18;3.45;;;1.25;;
66707;SDS011;53622;0.000;0.000;2022-11-20T15:30:49;2.92;;;1.63;;
66707;SDS011;53622;0.000;0.000;2022-11-20T15:33:18;2.80;;;1.23;;
66707;SDS011;53622;0.000;0.000;2022-11-20T15:35:49;2.42;;;1.58;;
66707;SDS011;53622;0.000;0.000;2022-11-20T15:38:18;4.57;;;1.75;;
66707;SDS011;53622;0.000;0.000;2022-11-20T15:40:47;4.40;;;1.48;;
66707;SDS011;53622;0.000;0.000;2022-11-20T15:43:17;2.88;;;1.70;;
66707;SDS011;53622;0.000;0.000;2022-11-20T15:45:47;3.78;;;1.60;;